Aeroporto :
LOGIN :

Iscrizione | Disclaimer

   EN    FR    IT 

 










Sommario :    VFR   VFR Marginale   IFR   IFR Intensivo   IFR Molto Intensivo
Visibilità : 
Base nubi : 
>= 8 km
>= 3000ft
5 / 8 km
1000 / 3000 ft
1500m / 5 km
500 / 1000 ft
800 / 1500m
200 / 500 ft
< 800m
< 200 ft
Simboli :   Temporali  Nebbia  Neve Forte  Precipitazioni Forti  Vento > 20 kt
SIGMETs :   Varie  Temporali  Ghiacco  Turbolenza  Onda orograficha  Ceneri Vulcaniche






- Altitudine del aeroporto : 80 ft
- Codice IATA : LPL


EGGP - Liverpool John Lennon

ULTIMO METAR :
  • 020720Z 03005KT CAVOK 01/M00 Q0990

METARs OBSOLETI :
  • 020650Z 04006KT 9999 FEW035 01/M00 Q0990
  • 020550Z 02005KT 9999 FEW030 01/00 Q0990
  • 020520Z 03004KT 9999 SCT033 01/00 Q0990
  • 020450Z AUTO 06004KT 9999 FEW032/// 02/01 Q0990
  • 020420Z AUTO 07004KT 9999 OVC031/// 02/01 Q0990
  • 012050Z 10004KT CAVOK 03/01 Q0990
  • 020350Z AUTO 06005KT 9999 OVC033/// 02/01 Q0990
  • 020320Z AUTO 06004KT 9999 -RA FEW024/// SCT028/// BKN032/// 02/01 Q0990
  • 020250Z AUTO 03004KT 9999 -RA BKN041/// 02/01 Q0990

TAF TAF EGGP
Valido dal 02 a 06 ore il 03 a 06 ore UTC


020457Z 0206/0306 06004KT 9999 SCT030
PROB30
TEMPO 0206/0210 8000 -SHRA BKN014
TEMPO 0210/0223 8000 -SHRA BKN014
PROB30
TEMPO 0210/0223 4000 SHRA BKN008
TEMPO 0223/0303 BKN014
ATIS : +44 151 907 2000 (option 5 or ext 5150)
Met : +44 871 750 5150



MetMap, La meteo Aeronautica in un colpo d'occhio ! - Copyright ORBIFLY Dicembre 2007 - Disclaimer

ORBIFLY MET'MAP TEAM :

Programmazione e sviluppo : Alexandra Zaïnal
Concezione : Baudouin d'Aumeries
Supporto tecnico e logistico : Manuel Goepfert
Aiuto : Marc-Olivier Méhu
Aiuto per la traduzione : Arnaldo La Scala




FONTI E CREDITI :

   NOAA